Webbville, Kentucky
Current Conditions -  °F | °C
As of 7:51 PM on Tuesday 25 Nov 2014 (Local Time) from KHTS Reporting Station
Clear Clear  
Wind Chill: 39°   Ceiling: Unl
Heat Index: 42°   Visibility: 10mi
Dew Point: 28°   Wind: 5mph
Humidity: 58%   Direction: 340°NNW
Pressure: 30.12"   Gusts: NA
Location:  38.18°N, 82.87°W
Report Text: KHTS 260051Z AUTO 34004KT 10SM CLR 06/M02 A3012 RMK AO2 SLP204 T00561022 TSNO
Loading
Personal Weather Stations






























Interactive Weather Map New forecast layout! Learn more

10-Day Weather Forecast

Advertisements
Track Severe Weather on mobile